Wuzhou, China
Current Conditions -  °F | °C
As of 11:30 AM on Monday 24 Nov 2014 (Local Time) from ZGGG Reporting Station
Broken Clouds Broken Clouds  
Wind Chill: 82°   Ceiling: 4300
Heat Index: 85°   Visibility: 4mi
Dew Point: 66°   Wind: 2mph
Humidity: 58%   Direction: NA
Pressure: 30"   Gusts: NA
Location:  23.48°N, 111.32°E
Report Text: ZGGG 240330Z VRB01MPS 6000 BKN043 28/19 Q1016 NOSIG
Loading
Personal Weather Stations






























Interactive Weather Map New forecast layout! Learn more

10-Day Weather Forecast

Advertisements
Track Severe Weather on mobile